メインページ
METAR-TAF:

METAR-TAF

空港 :

コロール, Babelthuap Island, パラオ

ロマン・トメトゥチェル国際空港

緯度: 07-22N, 経度: 134-32E, 海抜: 54m

現時点の気象観測

当レポートは7分前の20:54(UTC)に作成
東/北東の風 4kt
気温 26°C
湿度 89%
気圧 1013 hPa
視程: 22.5km
高度900ftの雲はほとんどない
高度1600ftの千切れ雲あり, 積乱雲.
高度29000ftの曇り

METAR: PTRO 292054Z 07004KT 14SM FEW009 BKN016CB OVC290 26/24 A2990 RMK CB VC ALQDS

時間: 06:01 (21:01 UTC)

予報

当レポートは3時間27分前の17:34(UTC)に作成
予報は29日の 18時(UTC)から 30日の 18時(UTC)まで有効
東/北東の風 7kt
視程: 10km
高度1600ftの雲は散在している
高度11000ftの千切れ雲あり
近辺でにわか雨

TAF: PTRO 291734Z 2918/3018 07007KT P6SM VCSH SCT016 BKN110

4,000以上の空港の気象観測と天気予報(METAR報とTAF報)

利用可能な観測所は地図上に黄色い丸と赤い丸で示す。

丸の上にカーソルを重ねると観測所名を参照できる。

次にクリックすると気象観測と天気予報を参照できる。

マップの切り替え:黒色「×」印の緑ボタンをクリックして拡大、「-」印の緑ボタンをクリックして縮小、緑色の三角印をクリックして隣りの地図に切り替え


METAR-TAF: